Time;durP1;ratioP1;P1;durP2;ratioP2;P2;SDS_P1;SDS_P2;PMS_P1;PMS_P2;Temp;Humidity;BMP_temperature;BMP_pressure;BME280_temperature;BME280_humidity;BME280_pressure;Samples;Min_cycle;Max_cycle;Signal;HPM_P1;HPM_P2
2021/05/19 00:01:29;;;;;;;1.98;1.70;;;;;;;6.72;88.43;96088.59;5024661;28;20052;-62
2021/05/19 00:03:55;;;;;;;1.90;1.80;;;;;;;6.81;87.56;96089.72;5014726;28;20375;-62
2021/05/19 00:06:21;;;;;;;1.80;1.70;;;;;;;6.72;88.20;96092.06;5023046;28;20036;-62
2021/05/19 00:08:46;;;;;;;2.08;1.98;;;;;;;6.67;89.00;96099.41;5016300;28;20061;-62
2021/05/19 00:11:12;;;;;;;1.75;1.65;;;;;;;6.72;88.36;96096.44;5015318;28;20022;-62
2021/05/19 00:13:37;;;;;;;2.78;2.10;;;;;;;6.71;88.64;96102.63;5016969;28;20449;-62
2021/05/19 00:16:08;;;;;;;3.33;1.50;;;;;;;6.80;87.88;96096.75;5016851;28;20057;-62
2021/05/19 00:18:35;;;;;;;1.83;1.73;;;;;;;6.74;88.53;96103.25;5017943;28;20083;-61
2021/05/19 00:21:01;;;;;;;3.17;2.00;;;;;;;6.71;89.14;96107.84;5018052;28;20661;-61
2021/05/19 00:23:27;;;;;;;2.22;2.00;;;;;;;6.69;88.46;96099.28;5011151;28;20036;-61
2021/05/19 00:25:52;;;;;;;3.75;2.10;;;;;;;6.61;89.56;96096.38;5023735;28;20431;-61
2021/05/19 00:28:18;;;;;;;3.50;1.77;;;;;;;6.58;89.78;96102.66;5016982;28;20037;-61
2021/05/19 00:30:46;;;;;;;2.40;2.10;;;;;;;6.58;90.02;96103.50;5021411;28;20026;-61
2021/05/19 00:33:12;;;;;;;2.97;2.22;;;;;;;6.58;89.26;96098.28;5003348;28;20439;-61
2021/05/19 00:35:37;;;;;;;4.07;2.13;;;;;;;6.59;89.06;96110.41;5023263;28;20072;-61
2021/05/19 00:38:03;;;;;;;3.22;2.10;;;;;;;6.61;89.19;96099.00;5026667;28;20054;-61
2021/05/19 00:40:30;;;;;;;2.40;2.00;;;;;;;6.69;89.30;96094.06;5020315;28;20022;-61
2021/05/19 00:42:57;;;;;;;2.70;2.28;;;;;;;6.63;89.67;96102.34;5019399;28;20025;-61
2021/05/19 00:45:24;;;;;;;7.88;2.00;;;;;;;6.66;89.27;96100.34;5015305;28;20385;-61
2021/05/19 00:47:49;;;;;;;1.90;1.80;;;;;;;6.61;89.87;96101.63;5017295;28;20878;-61
2021/05/19 00:50:22;;;;;;;9.02;2.15;;;;;;;6.68;89.81;96095.00;5024189;28;20065;-61
2021/05/19 00:52:48;;;;;;;2.85;1.95;;;;;;;6.71;89.38;96097.38;5022223;28;20393;-61
2021/05/19 00:55:14;;;;;;;2.30;2.10;;;;;;;6.65;89.60;96095.22;5008789;28;20128;-61
2021/05/19 00:57:44;;;;;;;2.10;2.00;;;;;;;6.68;89.31;96095.00;5016632;28;20026;-60
2021/05/19 01:00:14;;;;;;;2.40;2.20;;;;;;;6.77;88.51;96091.75;5004541;28;20057;-60
2021/05/19 01:02:40;;;;;;;3.47;1.90;;;;;;;6.81;88.05;96093.19;5010889;28;20485;-60
2021/05/19 01:05:10;;;;;;;1.98;1.88;;;;;;;6.82;88.63;96094.88;5008116;28;20104;-61
2021/05/19 01:07:39;;;;;;;3.08;1.70;;;;;;;6.71;88.81;96090.41;5012758;28;20033;-60
2021/05/19 01:10:06;;;;;;;1.98;1.88;;;;;;;6.70;88.91;96085.25;5008804;28;20034;-61
2021/05/19 01:12:31;;;;;;;2.40;2.20;;;;;;;6.68;88.89;96084.53;5016113;28;20080;-61
2021/05/19 01:14:57;;;;;;;1.80;1.70;;;;;;;6.66;89.45;96089.88;5015689;28;20030;-61
2021/05/19 01:17:22;;;;;;;2.15;1.95;;;;;;;6.67;88.93;96085.47;5015780;28;20075;-61
2021/05/19 01:19:51;;;;;;;1.90;1.80;;;;;;;6.66;89.36;96083.81;5017801;28;20036;-61
2021/05/19 01:22:28;;;;;;;2.33;2.15;;;;;;;6.63;88.70;96079.63;5029668;28;20033;-61
2021/05/19 01:24:55;;;;;;;3.75;2.00;;;;;;;6.65;88.73;96079.50;5022833;28;20084;-61
2021/05/19 01:27:22;;;;;;;1.92;1.75;;;;;;;6.73;87.98;96083.28;5009020;28;20026;-61
2021/05/19 01:29:53;;;;;;;2.92;2.28;;;;;;;6.73;88.42;96079.81;5008316;28;20113;-61
2021/05/19 01:32:20;;;;;;;2.65;1.77;;;;;;;6.72;88.55;96080.75;5006001;28;20435;-61
2021/05/19 01:34:45;;;;;;;2.15;1.60;;;;;;;6.69;89.03;96078.34;5014678;28;20042;-61
2021/05/19 01:37:12;;;;;;;2.10;1.90;;;;;;;6.66;89.14;96078.56;5005555;28;20400;-61
2021/05/19 01:39:39;;;;;;;2.63;2.03;;;;;;;6.64;89.69;96068.22;5014168;28;20069;-61
2021/05/19 01:42:05;;;;;;;2.30;1.90;;;;;;;6.53;90.00;96074.22;5013135;28;20548;-61
2021/05/19 01:44:30;;;;;;;2.15;2.05;;;;;;;6.48;89.95;96070.25;5015808;28;20036;-61
2021/05/19 01:46:56;;;;;;;2.45;2.00;;;;;;;6.45;89.99;96066.06;5019996;28;20029;-61
2021/05/19 01:49:25;;;;;;;2.72;1.60;;;;;;;6.49;89.65;96067.50;5021316;28;20481;-61
2021/05/19 01:51:52;;;;;;;2.50;2.05;;;;;;;6.47;89.14;96058.94;5012569;28;20033;-61
2021/05/19 01:54:20;;;;;;;2.33;1.65;;;;;;;6.43;89.46;96060.09;5015819;28;20072;-61
2021/05/19 01:56:45;;;;;;;3.08;1.60;;;;;;;6.41;89.23;96059.38;5025811;28;20108;-61
2021/05/19 01:59:11;;;;;;;1.98;1.88;;;;;;;6.42;89.72;96061.88;5014600;28;20105;-61
2021/05/19 02:01:37;;;;;;;2.00;1.90;;;;;;;6.40;89.52;96053.28;5010026;28;20029;-61
2021/05/19 02:04:07;;;;;;;2.28;2.03;;;;;;;6.36;90.22;96056.25;5023942;28;20114;-61
2021/05/19 02:06:48;;;;;;;2.30;1.90;;;;;;;6.34;90.17;96053.72;5018014;28;20052;-61
2021/05/19 02:09:14;;;;;;;4.60;2.38;;;;;;;6.26;90.80;96049.03;5024083;28;20022;-61
2021/05/19 02:11:40;;;;;;;2.40;2.20;;;;;;;6.24;90.77;96052.69;5022459;28;20555;-61
2021/05/19 02:14:06;;;;;;;4.70;1.80;;;;;;;6.22;90.28;96059.81;5029000;28;20025;-61
2021/05/19 02:16:32;;;;;;;3.00;2.28;;;;;;;6.19;90.67;96054.78;5019424;28;20383;-61
2021/05/19 02:18:58;;;;;;;6.30;2.45;;;;;;;6.19;90.14;96054.78;4999541;28;20083;-61
2021/05/19 02:21:24;;;;;;;2.95;2.53;;;;;;;6.22;90.55;96054.59;5013255;28;20068;-61
2021/05/19 02:23:49;;;;;;;2.70;2.45;;;;;;;6.23;90.20;96067.53;5011881;28;20495;-61
2021/05/19 02:26:15;;;;;;;3.58;2.28;;;;;;;6.20;91.14;96069.56;5015323;28;20030;-61
2021/05/19 02:28:40;;;;;;;7.30;2.78;;;;;;;6.14;91.22;96069.00;5022275;28;20028;-61
2021/05/19 02:31:06;;;;;;;4.38;2.67;;;;;;;6.21;91.03;96074.66;5009705;28;20034;-61
2021/05/19 02:33:32;;;;;;;3.17;2.83;;;;;;;6.24;90.85;96077.06;5020018;28;20375;-61
2021/05/19 02:35:57;;;;;;;3.15;2.78;;;;;;;6.21;90.90;96077.28;5012505;28;20034;-61
2021/05/19 02:38:23;;;;;;;4.50;2.58;;;;;;;6.27;91.05;96081.25;5009132;28;20536;-61
2021/05/19 02:40:49;;;;;;;3.50;2.70;;;;;;;6.27;91.26;96089.09;5016517;28;20022;-61
2021/05/19 02:43:14;;;;;;;5.40;2.38;;;;;;;6.28;91.02;96086.34;5019755;28;20033;-61
2021/05/19 02:45:40;;;;;;;3.55;2.45;;;;;;;6.23;91.22;96083.22;5030104;28;20441;-62
2021/05/19 02:48:05;;;;;;;4.45;2.30;;;;;;;6.30;90.87;96081.03;5025479;28;20036;-61
2021/05/19 02:50:31;;;;;;;3.33;2.83;;;;;;;6.28;90.67;96094.19;5024306;28;20018;-61
2021/05/19 02:52:57;;;;;;;3.63;3.42;;;;;;;6.29;90.99;96092.44;5028293;28;20041;-61
2021/05/19 02:55:23;;;;;;;5.75;3.40;;;;;;;6.26;91.12;96088.25;5024291;28;20030;-61
2021/05/19 02:57:48;;;;;;;3.33;3.10;;;;;;;6.24;90.96;96100.59;5030665;28;20049;-61
2021/05/19 03:00:14;;;;;;;5.35;2.88;;;;;;;6.23;90.77;96106.75;5023728;28;20030;-61
2021/05/19 03:02:40;;;;;;;3.65;3.15;;;;;;;6.28;90.38;96109.88;5020930;28;20407;-61
2021/05/19 03:05:06;;;;;;;4.03;2.83;;;;;;;6.33;90.58;96108.75;5010173;28;20026;-61
2021/05/19 03:07:32;;;;;;;2.80;2.55;;;;;;;6.38;90.08;96097.03;5018555;28;20036;-61
2021/05/19 03:09:58;;;;;;;3.97;2.40;;;;;;;6.41;89.84;96102.06;5024382;28;20013;-61
2021/05/19 03:12:23;;;;;;;2.53;2.30;;;;;;;6.35;90.73;96096.41;5026188;28;20025;-61
2021/05/19 03:14:49;;;;;;;3.47;2.47;;;;;;;6.25;90.93;96094.41;5024517;28;20022;-61
2021/05/19 03:17:14;;;;;;;4.85;2.53;;;;;;;6.23;90.61;96095.47;5025218;28;20018;-61
2021/05/19 03:19:40;;;;;;;3.50;2.65;;;;;;;6.25;91.21;96096.22;5019652;28;20506;-61
2021/05/19 03:22:06;;;;;;;5.28;2.65;;;;;;;6.28;90.87;96096.00;5019637;28;20029;-61
2021/05/19 03:24:31;;;;;;;2.63;2.47;;;;;;;6.27;91.46;96099.56;5020114;28;20040;-61
2021/05/19 03:26:57;;;;;;;3.15;2.67;;;;;;;6.33;91.03;96098.31;5022517;28;20049;-61
2021/05/19 03:29:22;;;;;;;4.07;2.95;;;;;;;6.28;91.42;96107.28;5021925;28;20032;-61
2021/05/19 03:31:48;;;;;;;3.17;2.60;;;;;;;6.33;91.19;96108.75;5014232;28;20038;-61
2021/05/19 03:34:14;;;;;;;2.85;2.47;;;;;;;6.32;91.04;96105.28;5018366;28;20028;-61
2021/05/19 03:36:39;;;;;;;5.63;2.67;;;;;;;6.30;91.50;96113.25;5012693;28;20033;-61
2021/05/19 03:39:08;;;;;;;5.43;2.47;;;;;;;6.30;91.66;96123.72;5012273;28;20589;-61
2021/05/19 03:41:34;;;;;;;2.35;2.25;;;;;;;6.37;91.55;96116.28;5009770;28;20108;-61
2021/05/19 03:44:00;;;;;;;3.40;2.58;;;;;;;6.44;91.64;96125.38;5017934;28;20061;-61
2021/05/19 03:46:25;;;;;;;2.35;2.17;;;;;;;6.47;91.39;96121.72;5021283;28;20390;-61
2021/05/19 03:48:53;;;;;;;3.40;2.20;;;;;;;6.41;91.02;96117.75;5025694;28;20097;-61
2021/05/19 03:51:20;;;;;;;4.03;2.50;;;;;;;6.48;91.01;96119.94;5019687;28;20029;-61
2021/05/19 03:53:46;;;;;;;4.65;2.50;;;;;;;6.47;91.18;96129.56;5030069;28;20048;-61
2021/05/19 03:56:15;;;;;;;2.75;2.50;;;;;;;6.43;91.38;96123.72;5020723;28;20034;-61
2021/05/19 03:58:44;;;;;;;3.72;2.50;;;;;;;6.40;91.54;96121.28;5015574;28;20026;-61
2021/05/19 04:01:10;;;;;;;7.18;2.63;;;;;;;6.46;91.17;96125.25;5019874;28;20017;-61
2021/05/19 04:03:36;;;;;;;4.28;2.75;;;;;;;6.48;91.04;96123.38;5022067;28;20029;-61
2021/05/19 04:06:02;;;;;;;2.83;2.50;;;;;;;6.48;91.05;96130.41;5017658;28;20037;-61
2021/05/19 04:08:36;;;;;;;2.70;2.47;;;;;;;6.47;91.28;96126.94;5009820;28;20026;-61
2021/05/19 04:11:02;;;;;;;2.88;2.58;;;;;;;6.45;90.97;96123.59;5021527;28;20025;-61
2021/05/19 04:13:28;;;;;;;2.85;2.28;;;;;;;6.44;90.98;96128.00;5025077;28;20030;-61
2021/05/19 04:15:53;;;;;;;2.50;2.30;;;;;;;6.44;90.83;96125.38;5027376;28;20072;-61
2021/05/19 04:18:21;;;;;;;2.80;2.60;;;;;;;6.41;90.95;96120.38;5017256;28;20026;-62
2021/05/19 04:20:46;;;;;;;2.80;2.33;;;;;;;6.47;90.73;96126.94;5016896;28;20076;-62
2021/05/19 04:23:12;;;;;;;2.45;2.25;;;;;;;6.47;90.48;96132.16;5012615;28;20486;-61
2021/05/19 04:25:38;;;;;;;2.50;2.40;;;;;;;6.53;90.78;96131.78;5022508;28;20049;-63
2021/05/19 04:28:04;;;;;;;5.35;2.65;;;;;;;6.58;90.46;96123.59;5018929;28;20018;-63
2021/05/19 04:30:29;;;;;;;3.47;2.75;;;;;;;6.62;90.51;96130.25;5023539;28;20060;-62
2021/05/19 04:32:55;;;;;;;3.58;2.85;;;;;;;6.60;90.72;96132.16;5012944;28;20029;-62
2021/05/19 04:35:20;;;;;;;4.18;2.40;;;;;;;6.62;90.22;96129.44;5020455;28;20025;-63
2021/05/19 04:37:46;;;;;;;2.78;2.60;;;;;;;6.61;90.38;96139.06;5016600;28;20620;-62
2021/05/19 04:40:12;;;;;;;5.43;2.55;;;;;;;6.58;90.82;96144.50;5013077;28;20034;-63
2021/05/19 04:42:38;;;;;;;2.72;2.40;;;;;;;6.60;90.45;96142.63;5023645;28;20025;-63
2021/05/19 04:45:04;;;;;;;3.63;2.72;;;;;;;6.68;90.08;96144.72;5017000;28;20041;-63
2021/05/19 04:47:30;;;;;;;5.45;3.00;;;;;;;6.69;90.58;96151.63;5011860;28;20081;-63
2021/05/19 04:49:55;;;;;;;4.10;2.60;;;;;;;6.73;90.05;96145.22;5005545;28;20132;-63
2021/05/19 04:52:22;;;;;;;8.00;2.85;;;;;;;6.74;89.70;96150.34;5019178;28;20053;-63
2021/05/19 04:54:49;;;;;;;4.00;2.83;;;;;;;6.68;90.31;96156.03;5022633;28;20036;-63
2021/05/19 04:57:15;;;;;;;3.80;2.85;;;;;;;6.67;90.04;96156.97;5012273;28;20562;-63
2021/05/19 04:59:41;;;;;;;3.45;2.92;;;;;;;6.74;89.96;96155.59;5018326;28;20014;-63
2021/05/19 05:05:29;;;;;;;4.72;3.47;;;;;;;6.84;89.59;96171.50;5012414;28;20056;-63
2021/05/19 05:07:54;;;;;;;3.15;2.95;;;;;;;6.94;88.88;96176.06;5022457;28;20060;-63
2021/05/19 05:14:34;;;;;;;2.95;2.55;;;;;;;7.04;89.06;96171.88;5013027;28;20053;-64
2021/05/19 05:17:00;;;;;;;3.15;2.85;;;;;;;7.16;88.44;96178.84;5014898;28;20433;-64
2021/05/19 05:19:26;;;;;;;2.95;2.60;;;;;;;7.24;87.69;96183.53;5011393;28;20013;-64
2021/05/19 05:21:51;;;;;;;4.07;2.63;;;;;;;7.20;88.41;96186.50;5017251;28;20084;-64
2021/05/19 05:24:17;;;;;;;6.28;2.80;;;;;;;7.14;88.59;96187.78;5013423;28;20032;-64
2021/05/19 05:26:42;;;;;;;3.08;2.63;;;;;;;7.12;88.69;96182.63;5014037;28;20101;-64
2021/05/19 05:29:08;;;;;;;3.30;2.47;;;;;;;7.19;88.70;96183.03;5015971;28;20049;-64
2021/05/19 05:31:33;;;;;;;3.05;2.65;;;;;;;7.38;88.55;96195.66;5017655;28;20057;-64
2021/05/19 05:33:59;;;;;;;3.88;2.90;;;;;;;7.43;88.75;96188.31;5024635;28;20509;-64
2021/05/19 05:36:24;;;;;;;4.70;2.50;;;;;;;7.51;87.95;96192.16;5011456;28;20379;-64
2021/05/19 05:38:50;;;;;;;3.47;2.90;;;;;;;7.55;86.73;96186.59;5005535;28;20521;-64
2021/05/19 05:41:15;;;;;;;3.30;2.80;;;;;;;7.59;85.95;96192.44;5004932;28;20106;-64
2021/05/19 05:43:41;;;;;;;2.92;2.72;;;;;;;7.66;85.85;96190.22;5014364;28;20101;-63
2021/05/19 05:46:06;;;;;;;4.25;2.90;;;;;;;7.70;85.41;96189.88;5015728;28;20018;-63
2021/05/19 05:48:32;;;;;;;3.90;2.83;;;;;;;7.76;85.63;96198.25;5015209;28;20049;-64
2021/05/19 05:51:00;;;;;;;2.90;2.70;;;;;;;7.88;85.50;96192.94;5014970;28;20032;-64
2021/05/19 05:53:25;;;;;;;5.85;3.60;;;;;;;8.03;85.56;96188.34;5014834;28;20025;-63
2021/05/19 05:55:51;;;;;;;5.40;3.55;;;;;;;8.23;84.05;96198.31;5015959;28;20473;-63
2021/05/19 05:58:17;;;;;;;4.40;3.05;;;;;;;8.39;83.54;96190.13;5010170;28;20076;-63
2021/05/19 06:00:42;;;;;;;5.32;3.08;;;;;;;8.40;83.41;96197.03;5014075;28;20026;-64
2021/05/19 06:03:08;;;;;;;3.40;3.10;;;;;;;8.28;83.36;96204.06;5015545;28;20052;-64
2021/05/19 06:05:34;;;;;;;4.15;3.13;;;;;;;8.31;83.16;96207.28;5017048;28;20500;-63
2021/05/19 06:08:03;;;;;;;4.93;3.63;;;;;;;8.40;82.67;96200.50;5019111;28;20085;-64
2021/05/19 06:10:28;;;;;;;5.07;3.53;;;;;;;8.40;82.60;96203.13;5019703;28;20097;-65
2021/05/19 06:12:54;;;;;;;4.28;3.45;;;;;;;8.42;83.23;96205.63;5015639;28;20041;-66
2021/05/19 06:15:19;;;;;;;4.13;3.53;;;;;;;8.92;83.00;96196.66;5019772;28;20556;-64
2021/05/19 06:17:45;;;;;;;5.88;3.00;;;;;;;9.09;80.37;96197.97;5018480;28;20422;-66
2021/05/19 06:20:11;;;;;;;5.07;3.25;;;;;;;9.19;80.11;96198.91;5017565;28;20024;-63
2021/05/19 06:22:37;;;;;;;6.85;3.28;;;;;;;9.24;79.67;96196.75;5016321;28;20402;-66
2021/05/19 06:25:03;;;;;;;4.35;2.95;;;;;;;9.27;80.21;96203.56;5014571;28;20018;-66
2021/05/19 06:27:29;;;;;;;4.60;2.63;;;;;;;9.30;79.63;96200.69;5014674;28;20532;-63
2021/05/19 06:29:55;;;;;;;5.47;2.75;;;;;;;9.34;79.15;96206.56;5015782;28;20018;-63
2021/05/19 06:32:20;;;;;;;5.15;2.22;;;;;;;9.40;77.96;96192.91;5003703;28;20036;-63
2021/05/19 06:34:46;;;;;;;2.58;2.38;;;;;;;9.57;77.68;96204.69;5013972;28;20026;-63
2021/05/19 06:37:11;;;;;;;4.88;2.28;;;;;;;9.81;77.02;96198.41;5021901;28;20068;-63
2021/05/19 06:39:37;;;;;;;6.57;3.00;;;;;;;10.77;75.39;96195.81;5017840;28;20132;-63
2021/05/19 06:42:03;;;;;;;2.63;2.42;;;;;;;12.37;69.59;96196.84;5018413;28;20022;-63
2021/05/19 06:44:29;;;;;;;3.88;2.20;;;;;;;13.57;65.97;96197.16;5017051;28;20092;-63
2021/05/19 06:46:55;;;;;;;2.58;2.17;;;;;;;14.58;62.71;96196.09;5020368;28;20034;-61
2021/05/19 06:49:20;;;;;;;2.85;2.10;;;;;;;14.83;60.57;96196.31;5010844;28;20026;-66
2021/05/19 06:51:46;;;;;;;2.08;1.98;;;;;;;15.03;59.62;96196.94;5009430;28;20497;-64
2021/05/19 06:54:12;;;;;;;5.15;2.35;;;;;;;14.46;59.61;96195.53;5015556;28;20026;-62
2021/05/19 06:56:44;;;;;;;3.25;2.22;;;;;;;13.92;62.52;96208.78;5017578;28;20490;-62
2021/05/19 06:59:11;;;;;;;2.58;2.00;;;;;;;13.35;63.54;96215.06;5016520;28;20105;-62
2021/05/19 07:01:36;;;;;;;2.58;1.83;;;;;;;12.72;63.60;96213.91;5017150;28;20022;-63
2021/05/19 07:04:02;;;;;;;3.10;2.10;;;;;;;13.19;63.52;96205.13;5010273;28;20029;-61
2021/05/19 07:06:28;;;;;;;3.17;1.85;;;;;;;13.84;63.13;96203.44;5016282;28;20061;-61
2021/05/19 07:08:53;;;;;;;5.63;2.05;;;;;;;14.97;58.54;96207.31;5015429;28;20050;-61
2021/05/19 07:11:19;;;;;;;2.60;1.73;;;;;;;15.55;54.89;96202.28;5016620;28;20112;-62
2021/05/19 07:13:44;;;;;;;2.42;1.77;;;;;;;15.92;53.87;96201.09;5016319;28;20017;-62
2021/05/19 07:16:11;;;;;;;6.13;1.80;;;;;;;15.59;52.46;96198.31;5020551;28;20052;-62
2021/05/19 07:18:37;;;;;;;3.90;1.73;;;;;;;16.16;53.27;96197.66;5017726;28;20029;-61
2021/05/19 07:21:03;;;;;;;4.20;1.60;;;;;;;16.42;50.25;96195.81;5019880;28;20159;-62
2021/05/19 07:23:29;;;;;;;6.43;2.38;;;;;;;17.27;50.70;96199.03;5016710;28;20405;-63
2021/05/19 07:25:54;;;;;;;5.55;1.85;;;;;;;17.75;49.17;96189.16;5008732;28;20029;-62
2021/05/19 07:28:20;;;;;;;3.47;2.10;;;;;;;17.61;48.83;96189.91;5007066;28;20050;-62
2021/05/19 07:30:49;;;;;;;2.45;1.70;;;;;;;17.72;47.08;96197.50;5011172;28;20033;-63
2021/05/19 07:33:15;;;;;;;4.28;1.52;;;;;;;17.63;45.08;96195.88;5016710;28;20026;-63
2021/05/19 07:35:41;;;;;;;3.80;1.70;;;;;;;17.63;45.03;96190.56;5007413;28;20038;-64
2021/05/19 07:38:08;;;;;;;4.28;1.63;;;;;;;16.92;48.74;96195.78;5010266;28;20096;-66
2021/05/19 07:40:35;;;;;;;7.43;1.85;;;;;;;17.28;47.58;96190.88;5015666;28;20497;-66
2021/05/19 07:43:00;;;;;;;3.58;1.40;;;;;;;17.63;47.45;96203.88;5015682;28;20491;-66
2021/05/19 07:45:26;;;;;;;1.73;1.40;;;;;;;17.74;45.35;96192.81;5018782;28;20132;-66
2021/05/19 07:47:52;;;;;;;3.22;1.23;;;;;;;18.46;42.16;96192.72;5014175;28;20025;-66
2021/05/19 07:50:17;;;;;;;3.08;1.52;;;;;;;18.39;42.71;96183.75;5028859;28;20026;-66
2021/05/19 07:52:48;;;;;;;2.70;1.40;;;;;;;18.09;42.29;96186.34;5018778;28;20029;-66
2021/05/19 07:55:23;;;;;;;1.40;1.30;;;;;;;18.02;44.42;96189.72;5024527;28;20112;-66
2021/05/19 07:57:52;;;;;;;2.78;1.42;;;;;;;19.03;41.43;96182.53;5012961;28;20026;-66
2021/05/19 08:00:40;;;;;;;2.25;1.23;;;;;;;18.57;43.17;96178.94;5016848;28;20064;-66
2021/05/19 08:03:06;;;;;;;6.80;1.80;;;;;;;19.34;41.46;96173.50;5016772;28;20026;-65
2021/05/19 08:05:32;;;;;;;3.10;1.70;;;;;;;19.28;41.81;96176.91;5016825;28;20026;-64
2021/05/19 08:08:04;;;;;;;4.10;1.67;;;;;;;19.31;42.55;96168.53;5007268;28;20980;-64
2021/05/19 08:10:29;;;;;;;2.25;1.50;;;;;;;18.96;42.14;96178.94;5013345;28;20025;-64
2021/05/19 08:12:55;;;;;;;6.10;1.50;;;;;;;18.98;40.66;96169.75;5014305;28;20025;-65
2021/05/19 08:15:21;;;;;;;2.83;1.33;;;;;;;19.61;38.18;96173.84;5015561;28;20034;-64
2021/05/19 08:17:46;;;;;;;1.88;1.60;;;;;;;19.83;37.90;96171.22;5015426;28;20030;-65
2021/05/19 08:20:13;;;;;;;1.92;1.63;;;;;;;19.59;39.00;96170.56;5018226;28;20034;-65
2021/05/19 08:22:40;;;;;;;5.35;1.77;;;;;;;19.97;39.48;96166.88;5020678;28;20018;-63
2021/05/19 08:25:07;;;;;;;1.40;1.30;;;;;;;20.07;37.24;96167.38;5020591;28;20052;-65
2021/05/19 08:27:33;;;;;;;9.82;1.88;;;;;;;20.00;38.11;96159.28;5015296;28;20040;-65
2021/05/19 08:29:58;;;;;;;4.05;1.52;;;;;;;19.58;38.93;96166.22;5025100;28;20488;-65
2021/05/19 08:32:24;;;;;;;1.75;1.25;;;;;;;19.13;39.60;96161.75;5028965;28;20063;-65
2021/05/19 08:34:50;;;;;;;3.22;1.50;;;;;;;19.96;37.43;96162.56;5022005;28;20033;-65
2021/05/19 08:37:16;;;;;;;2.05;1.40;;;;;;;20.04;37.16;96151.72;5016995;28;20036;-62
2021/05/19 08:39:43;;;;;;;1.58;1.33;;;;;;;19.96;39.27;96152.69;4991412;28;20047;-65
2021/05/19 08:42:08;;;;;;;3.67;1.60;;;;;;;20.21;36.54;96144.28;4984568;28;20018;-65
2021/05/19 08:44:43;;;;;;;3.97;1.70;;;;;;;19.55;40.17;96151.41;5095416;27;20360;-64
2021/05/19 08:47:11;;;;;;;1.30;1.13;;;;;;;19.80;39.30;96148.38;5083856;28;20032;-65
2021/05/19 08:49:39;;;;;;;1.23;1.20;;;;;;;19.93;39.48;96154.94;5090830;28;20052;-65
2021/05/19 08:52:05;;;;;;;1.83;1.45;;;;;;;19.67;39.47;96150.88;5091752;28;20055;-62
2021/05/19 08:54:31;;;;;;;2.80;1.45;;;;;;;19.15;38.99;96149.06;5090661;28;20837;-64
2021/05/19 08:56:59;;;;;;;4.07;1.48;;;;;;;19.24;39.36;96148.94;5085838;28;20071;-64
2021/05/19 08:59:25;;;;;;;2.40;1.40;;;;;;;19.29;38.09;96151.88;5090580;28;20099;-64
2021/05/19 09:01:54;;;;;;;2.85;1.45;;;;;;;18.66;40.19;96142.38;5091061;28;20058;-64
2021/05/19 09:04:23;;;;;;;3.15;1.58;;;;;;;18.78;40.84;96140.09;5090127;28;20111;-62
2021/05/19 09:07:07;;;;;;;2.58;1.42;;;;;;;18.80;39.93;96140.72;5088030;28;20024;-62
2021/05/19 09:09:38;;;;;;;3.20;1.50;;;;;;;18.85;40.26;96133.00;5086800;28;20044;-62
2021/05/19 09:12:10;;;;;;;2.92;1.33;;;;;;;18.77;39.49;96133.09;5086473;28;20255;-62
2021/05/19 09:14:38;;;;;;;3.78;1.25;;;;;;;19.09;38.56;96125.75;5086033;28;20075;-63
2021/05/19 09:17:24;;;;;;;1.95;1.50;;;;;;;19.81;37.68;96130.53;5090394;28;20024;-64
2021/05/19 09:20:09;;;;;;;3.72;1.50;;;;;;;19.98;36.95;96123.13;5090350;28;20072;-62
2021/05/19 09:22:38;;;;;;;1.67;1.30;;;;;;;19.61;37.48;96123.13;5089137;28;20074;-62
2021/05/19 09:25:22;;;;;;;4.72;1.55;;;;;;;20.00;36.35;96116.53;5088385;28;20020;-62
2021/05/19 09:27:53;;;;;;;2.30;1.17;;;;;;;20.66;37.15;96119.13;5088861;28;20020;-62
2021/05/19 09:30:40;;;;;;;4.07;1.70;;;;;;;19.64;35.44;96117.41;5083081;28;20051;-64
2021/05/19 09:36:27;;;;;;;4.70;1.30;;;;;;;19.66;37.76;96119.84;5085087;28;20128;-62
2021/05/19 09:38:53;;;;;;;3.85;1.40;;;;;;;18.86;39.18;96125.84;5082123;28;20047;-62
2021/05/19 09:41:25;;;;;;;2.45;1.27;;;;;;;17.57;42.47;96124.69;5091882;28;20027;-61
2021/05/19 09:43:55;;;;;;;2.05;1.60;;;;;;;17.17;44.29;96138.03;5079588;28;20397;-61
2021/05/19 09:48:48;;;;;;;3.70;1.70;;;;;;;16.84;43.69;96127.50;5082100;28;20017;-62
2021/05/19 09:51:35;;;;;;;2.00;1.60;;;;;;;16.36;44.74;96132.72;5084237;28;20020;-61
2021/05/19 09:54:01;;;;;;;2.50;1.40;;;;;;;16.15;44.51;96128.75;5080988;28;20472;-61
2021/05/19 09:56:27;;;;;;;2.40;1.52;;;;;;;15.75;45.35;96128.53;5075107;28;20084;-62
2021/05/19 09:58:53;;;;;;;3.28;1.60;;;;;;;15.94;45.18;96130.06;5068542;28;20048;-61
2021/05/19 10:01:19;;;;;;;2.85;1.60;;;;;;;15.65;44.98;96128.66;5078290;28;20488;-62
2021/05/19 10:03:44;;;;;;;2.00;1.33;;;;;;;15.58;44.60;96135.59;5070934;28;20480;-61
2021/05/19 10:08:36;;;;;;;4.68;1.50;;;;;;;15.25;47.22;96140.81;5075788;28;20029;-59
2021/05/19 10:11:05;;;;;;;2.67;1.50;;;;;;;14.96;48.00;96134.09;5075808;28;20028;-60
2021/05/19 10:13:31;;;;;;;2.55;1.60;;;;;;;14.83;48.50;96135.34;5072160;28;20033;-63
2021/05/19 10:15:59;;;;;;;2.13;1.58;;;;;;;14.74;48.14;96133.66;5077944;28;20029;-60
2021/05/19 10:18:31;;;;;;;3.58;1.55;;;;;;;15.14;47.25;96126.88;5067625;28;20062;-61
2021/05/19 10:20:58;;;;;;;3.22;1.80;;;;;;;15.27;49.58;96137.03;5072555;28;20032;-61
2021/05/19 10:23:40;;;;;;;2.85;1.65;;;;;;;15.21;49.26;96131.53;5072392;28;20491;-60
2021/05/19 10:26:07;;;;;;;4.82;1.83;;;;;;;14.76;48.95;96139.63;5073584;28;20119;-60
2021/05/19 10:28:47;;;;;;;3.10;1.58;;;;;;;14.51;50.25;96141.25;5076274;28;20028;-60
2021/05/19 10:31:31;;;;;;;3.03;1.75;;;;;;;15.21;51.38;96140.31;5065920;28;20080;-60
2021/05/19 10:33:58;;;;;;;1.95;1.48;;;;;;;16.45;45.44;96135.19;5068993;28;20499;-60
2021/05/19 10:36:24;;;;;;;2.83;1.65;;;;;;;17.23;44.43;96139.19;5067173;28;20064;-60
2021/05/19 10:39:11;;;;;;;3.25;1.48;;;;;;;17.99;43.08;96141.25;5072644;28;20814;-61
2021/05/19 10:41:41;;;;;;;4.20;1.30;;;;;;;18.14;42.74;96144.00;5072091;28;20481;-60
2021/05/19 10:44:24;;;;;;;5.65;1.50;;;;;;;18.44;39.90;96134.25;5062902;28;20041;-61
2021/05/19 10:47:04;;;;;;;4.03;1.40;;;;;;;18.06;40.02;96144.88;5070293;28;20550;-61
2021/05/19 10:50:34;;;;;;;1.42;0.98;;;;;;;17.43;39.21;96145.75;5072026;28;20020;-61
2021/05/19 10:58:54;;;;;;;2.42;1.40;;;;;;;17.72;41.15;96130.94;5067593;28;20031;-61
2021/05/19 11:01:41;;;;;;;3.95;1.23;;;;;;;16.58;40.46;96137.34;5069971;28;20021;-60
2021/05/19 11:04:18;;;;;;;1.55;1.17;;;;;;;16.45;44.13;96137.00;5063216;28;20021;-62
2021/05/19 11:06:56;;;;;;;2.78;1.25;;;;;;;16.85;41.63;96140.59;5070027;28;20503;-61
2021/05/19 11:09:24;;;;;;;1.80;1.15;;;;;;;17.36;40.34;96122.66;5070721;28;20024;-61
2021/05/19 11:11:49;;;;;;;1.40;1.30;;;;;;;18.25;39.27;96124.09;5072473;28;20020;-61
2021/05/19 11:14:33;;;;;;;2.03;1.25;;;;;;;18.46;36.73;96116.22;5066690;28;20028;-60
2021/05/19 11:17:06;;;;;;;2.13;1.27;;;;;;;18.87;36.38;96114.97;5072126;28;20024;-61
2021/05/19 11:19:35;;;;;;;1.58;1.10;;;;;;;18.57;36.60;96116.81;5064971;28;20020;-61
2021/05/19 11:22:06;;;;;;;2.03;1.00;;;;;;;17.16;37.08;96117.75;5062723;28;20016;-61
2021/05/19 11:24:50;;;;;;;1.15;1.05;;;;;;;17.31;36.41;96115.19;5073802;28;20023;-61
2021/05/19 11:27:20;;;;;;;3.45;1.23;;;;;;;18.19;37.75;96109.63;5073448;28;20028;-60
2021/05/19 11:29:47;;;;;;;2.30;1.20;;;;;;;18.84;36.94;96099.34;5071336;28;20035;-61
2021/05/19 11:32:32;;;;;;;1.92;1.13;;;;;;;19.56;33.47;96102.31;5069442;28;20077;-61
2021/05/19 11:35:19;;;;;;;2.20;1.08;;;;;;;20.23;33.52;96101.34;5069092;28;20024;-61
2021/05/19 11:38:07;;;;;;;1.20;1.10;;;;;;;20.44;31.89;96103.97;5068029;28;20028;-62
2021/05/19 11:40:43;;;;;;;1.67;1.17;;;;;;;20.81;31.45;96093.13;5072839;28;20200;-61
2021/05/19 11:43:09;;;;;;;1.98;1.20;;;;;;;20.49;34.00;96083.84;5072773;28;20108;-62
2021/05/19 11:45:35;;;;;;;1.42;1.20;;;;;;;20.55;32.76;96081.22;5073838;28;20029;-62
2021/05/19 11:48:02;;;;;;;4.05;1.45;;;;;;;19.24;34.57;96076.88;5063505;28;20040;-62
2021/05/19 11:50:32;;;;;;;1.42;1.02;;;;;;;18.33;35.73;96070.69;5074371;28;20026;-61
2021/05/19 11:53:05;;;;;;;3.42;1.30;;;;;;;17.29;37.27;96067.47;5072026;28;20056;-61
2021/05/19 11:55:47;;;;;;;2.72;1.52;;;;;;;17.08;39.84;96077.91;5080054;28;20036;-61
2021/05/19 11:58:18;;;;;;;3.15;1.40;;;;;;;16.26;41.11;96080.59;5070574;28;20107;-61
2021/05/19 12:00:52;;;;;;;3.03;1.30;;;;;;;16.42;40.63;96079.75;5075481;28;20027;-61
2021/05/19 12:03:24;;;;;;;2.22;1.45;;;;;;;15.99;41.93;96082.59;5073993;28;20511;-61
2021/05/19 12:05:56;;;;;;;2.90;1.55;;;;;;;16.00;40.40;96076.28;5075716;28;20104;-60